createdAt,value
2022-08-27T00:01:35.513Z,62.72
2022-08-27T00:04:02.672Z,62.74
2022-08-27T00:06:29.363Z,62.68
2022-08-27T00:08:55.996Z,63.12
2022-08-27T00:11:25.390Z,63.14
2022-08-27T00:13:53.075Z,63.51
2022-08-27T00:16:20.736Z,63.41
2022-08-27T00:18:48.603Z,63.55
2022-08-27T00:21:17.250Z,63.36
2022-08-27T00:23:43.947Z,63.51
2022-08-27T00:26:11.190Z,63.40
2022-08-27T00:28:39.686Z,63.35
2022-08-27T00:31:07.527Z,63.48
2022-08-27T00:33:36.634Z,63.84
2022-08-27T00:36:05.078Z,63.72
2022-08-27T00:38:31.637Z,63.54
2022-08-27T00:40:59.308Z,63.48
2022-08-27T00:43:32.603Z,63.53
2022-08-27T00:46:11.602Z,63.30
2022-08-27T00:48:38.322Z,63.31
2022-08-27T00:51:06.592Z,63.67
2022-08-27T00:53:35.993Z,63.46
2022-08-27T00:56:16.243Z,63.33
2022-08-27T00:58:47.954Z,63.46
2022-08-27T01:01:19.690Z,63.23
2022-08-27T01:03:51.066Z,63.34
2022-08-27T01:06:20.047Z,63.57
2022-08-27T01:08:57.040Z,63.28
2022-08-27T01:11:25.075Z,63.34
2022-08-27T01:13:59.810Z,63.75
2022-08-27T01:16:36.167Z,63.23
2022-08-27T01:19:14.438Z,63.42
2022-08-27T01:22:28.643Z,63.99
2022-08-27T01:25:01.079Z,64.02
2022-08-27T01:27:31.506Z,64.13
2022-08-27T01:29:58.818Z,64.23
2022-08-27T01:32:32.213Z,64.45
2022-08-27T01:35:00.887Z,64.33
2022-08-27T01:37:28.707Z,64.22
2022-08-27T01:39:59.188Z,64.48
2022-08-27T01:42:38.790Z,64.38
2022-08-27T01:45:12.478Z,64.35
2022-08-27T01:47:39.351Z,64.98
2022-08-27T01:50:13.198Z,64.88
2022-08-27T01:52:40.575Z,65.18
2022-08-27T01:55:11.899Z,65.05
2022-08-27T01:57:39.802Z,65.33
2022-08-27T02:00:14.458Z,65.25
2022-08-27T02:02:42.654Z,65.53
2022-08-27T02:05:09.841Z,65.71
2022-08-27T02:07:38.399Z,66.25
2022-08-27T02:10:08.946Z,66.76
2022-08-27T02:12:35.646Z,67.10
2022-08-27T02:15:02.728Z,66.88
2022-08-27T02:17:29.246Z,66.63
2022-08-27T02:19:56.771Z,66.63
2022-08-27T02:22:24.371Z,66.87
2022-08-27T02:24:51.122Z,67.27
2022-08-27T02:27:18.326Z,67.76
2022-08-27T02:29:44.814Z,68.12
2022-08-27T02:32:17.643Z,68.30
2022-08-27T02:34:50.589Z,68.42
2022-08-27T02:37:17.360Z,68.77
2022-08-27T02:39:46.089Z,68.95
2022-08-27T02:42:12.687Z,68.49
2022-08-27T02:44:39.502Z,68.19
2022-08-27T02:47:06.950Z,67.97
2022-08-27T02:49:34.163Z,67.87
2022-08-27T02:52:00.656Z,67.77
2022-08-27T02:54:27.651Z,67.78
2022-08-27T02:56:54.863Z,68.02
2022-08-27T02:59:22.503Z,68.26
2022-08-27T03:01:49.545Z,68.44
2022-08-27T03:04:19.719Z,68.18
2022-08-27T03:06:47.272Z,68.09
2022-08-27T03:09:14.006Z,68.11
2022-08-27T03:11:41.831Z,68.10
2022-08-27T03:14:09.030Z,68.22
2022-08-27T03:16:37.666Z,68.46
2022-08-27T03:19:06.987Z,68.73
2022-08-27T03:21:36.266Z,68.49
2022-08-27T03:24:11.334Z,68.97
2022-08-27T03:26:39.432Z,69.67
2022-08-27T03:29:07.807Z,70.00
2022-08-27T03:31:34.720Z,70.21
2022-08-27T03:34:08.036Z,69.67
2022-08-27T03:36:34.567Z,69.88
2022-08-27T03:39:01.084Z,69.92
2022-08-27T03:41:39.995Z,69.70
2022-08-27T03:44:21.468Z,69.62
2022-08-27T03:46:49.563Z,69.84
2022-08-27T03:49:20.206Z,69.28
2022-08-27T03:51:47.612Z,69.30
2022-08-27T03:54:15.058Z,69.47
2022-08-27T03:56:41.785Z,69.36
2022-08-27T03:59:09.136Z,69.38
2022-08-27T04:01:35.951Z,69.58
2022-08-27T04:04:03.106Z,69.75
2022-08-27T04:06:29.698Z,69.67
2022-08-27T04:08:56.503Z,69.45
2022-08-27T04:11:23.315Z,69.29
2022-08-27T04:13:49.895Z,69.02
2022-08-27T04:16:16.721Z,69.29
2022-08-27T04:18:43.267Z,69.32
2022-08-27T04:21:13.087Z,69.00
2022-08-27T04:23:41.877Z,69.20
2022-08-27T04:26:10.916Z,69.12
2022-08-27T04:28:38.813Z,68.96
2022-08-27T04:31:16.423Z,69.43
2022-08-27T04:33:51.294Z,69.84
2022-08-27T04:36:19.983Z,69.32
2022-08-27T04:38:47.709Z,69.28
2022-08-27T04:41:21.234Z,69.12
2022-08-27T04:43:56.143Z,68.98
2022-08-27T04:46:29.938Z,69.25
2022-08-27T04:49:03.646Z,69.25
2022-08-27T04:51:40.099Z,69.28
2022-08-27T04:54:08.559Z,69.09
2022-08-27T04:56:36.787Z,69.40
2022-08-27T04:59:07.991Z,69.05
2022-08-27T05:01:35.976Z,69.02
2022-08-27T05:04:03.042Z,69.00
2022-08-27T05:06:30.286Z,69.07
2022-08-27T05:08:57.102Z,68.68
2022-08-27T05:11:28.290Z,68.68
2022-08-27T05:13:54.834Z,68.40
2022-08-27T05:16:23.030Z,68.67
2022-08-27T05:18:51.666Z,68.68
2022-08-27T05:21:22.236Z,68.86
2022-08-27T05:23:49.068Z,68.73
2022-08-27T05:26:16.347Z,68.36
2022-08-27T05:28:44.089Z,68.34
2022-08-27T05:31:14.176Z,68.37
2022-08-27T05:33:42.929Z,68.33
2022-08-27T05:36:18.615Z,68.32
2022-08-27T05:38:45.759Z,69.07
2022-08-27T05:41:20.842Z,68.92
2022-08-27T05:43:50.119Z,68.68
2022-08-27T05:46:20.521Z,68.31
2022-08-27T05:48:50.188Z,68.25
2022-08-27T05:51:30.823Z,68.25
2022-08-27T05:54:04.510Z,68.23
2022-08-27T05:56:36.988Z,67.83
2022-08-27T05:59:23.892Z,68.06
2022-08-27T06:01:53.379Z,68.14
2022-08-27T06:04:22.787Z,68.05
2022-08-27T06:06:51.004Z,68.50
2022-08-27T06:09:26.260Z,68.45
2022-08-27T06:12:00.541Z,67.66
2022-08-27T06:14:28.418Z,67.83
2022-08-27T06:16:55.841Z,68.02
2022-08-27T06:19:23.933Z,67.95
2022-08-27T06:22:01.113Z,68.13
2022-08-27T06:24:39.442Z,68.34
2022-08-27T06:27:06.274Z,68.30
2022-08-27T06:29:35.020Z,68.21
2022-08-27T06:32:01.719Z,67.93
2022-08-27T06:34:28.272Z,68.16
2022-08-27T06:36:54.967Z,68.04
2022-08-27T06:39:21.557Z,68.17
2022-08-27T06:41:50.145Z,68.52
2022-08-27T06:44:16.679Z,68.59
2022-08-27T06:46:43.954Z,68.79
2022-08-27T06:49:12.567Z,69.02
2022-08-27T06:51:42.992Z,68.87
2022-08-27T06:54:12.163Z,69.16
2022-08-27T06:56:40.514Z,69.45
2022-08-27T06:59:12.282Z,69.43
2022-08-27T07:01:43.903Z,69.86
2022-08-27T07:04:19.125Z,69.81
2022-08-27T07:06:45.779Z,69.46
2022-08-27T07:09:12.419Z,69.69
2022-08-27T07:11:39.550Z,69.56
2022-08-27T07:14:08.163Z,69.36
2022-08-27T07:16:36.054Z,69.14
2022-08-27T07:19:05.372Z,68.94
2022-08-27T07:21:34.826Z,68.64
2022-08-27T07:24:04.925Z,68.44
2022-08-27T07:26:35.203Z,68.00
2022-08-27T07:29:04.763Z,67.64
2022-08-27T07:31:32.383Z,67.24
2022-08-27T07:33:58.947Z,66.90
2022-08-27T07:36:25.723Z,67.20
2022-08-27T07:38:59.292Z,67.46
2022-08-27T07:41:32.034Z,67.71
2022-08-27T07:44:21.005Z,67.54
2022-08-27T07:46:58.567Z,67.64
2022-08-27T07:49:28.934Z,66.82
2022-08-27T07:51:55.785Z,66.42
2022-08-27T07:54:23.167Z,66.50
2022-08-27T07:56:55.487Z,66.09
2022-08-27T07:59:25.185Z,66.62
2022-08-27T08:01:55.783Z,66.37
2022-08-27T08:04:22.863Z,66.26
2022-08-27T08:06:51.537Z,66.37
2022-08-27T08:09:19.743Z,66.16
2022-08-27T08:11:46.319Z,65.93
2022-08-27T08:14:12.929Z,65.72
2022-08-27T08:16:40.133Z,65.68
2022-08-27T08:19:07.062Z,65.72
2022-08-27T08:21:33.619Z,65.58
2022-08-27T08:24:01.978Z,65.33
2022-08-27T08:26:29.053Z,64.82
2022-08-27T08:28:55.737Z,64.96
2022-08-27T08:31:23.962Z,65.13
2022-08-27T08:33:50.568Z,64.37
2022-08-27T08:36:17.943Z,64.75
2022-08-27T08:38:47.213Z,65.16
2022-08-27T08:41:22.733Z,65.17
2022-08-27T08:43:51.591Z,65.22
2022-08-27T08:46:58.608Z,64.77
2022-08-27T08:50:08.024Z,64.74
2022-08-27T08:52:34.454Z,64.98
2022-08-27T08:55:13.033Z,64.20
2022-08-27T08:58:14.503Z,64.22
2022-08-27T09:00:45.208Z,64.63
2022-08-27T09:03:14.824Z,64.13
2022-08-27T09:05:51.862Z,63.73
2022-08-27T09:08:41.287Z,63.28
2022-08-27T09:11:28.344Z,63.13
2022-08-27T09:14:03.120Z,63.11
2022-08-27T09:16:30.245Z,62.83
2022-08-27T09:18:56.877Z,63.15
2022-08-27T09:21:43.539Z,63.16
2022-08-27T09:24:36.982Z,63.16
2022-08-27T09:27:03.924Z,62.67
2022-08-27T09:29:30.659Z,62.85
2022-08-27T09:32:03.828Z,62.53
2022-08-27T09:34:41.106Z,62.49
2022-08-27T09:37:20.384Z,62.06
2022-08-27T09:40:04.696Z,62.11
2022-08-27T09:42:43.101Z,62.40
2022-08-27T09:45:28.668Z,62.68
2022-08-27T09:48:14.848Z,62.17
2022-08-27T09:50:53.358Z,61.89
2022-08-27T09:53:25.606Z,62.09
2022-08-27T09:56:00.525Z,62.15
2022-08-27T09:58:47.321Z,62.17
2022-08-27T10:01:21.871Z,62.92
2022-08-27T10:03:49.663Z,62.74
2022-08-27T10:06:38.419Z,62.31
2022-08-27T10:09:22.026Z,61.88
2022-08-27T10:12:10.011Z,61.95
2022-08-27T10:14:54.941Z,61.54
2022-08-27T10:17:42.632Z,61.60
2022-08-27T10:20:42.226Z,61.33
2022-08-27T10:23:26.313Z,61.75
2022-08-27T10:26:29.696Z,61.45
2022-08-27T10:29:40.034Z,61.62
2022-08-27T10:32:55.587Z,61.30
2022-08-27T10:35:47.891Z,61.04
2022-08-27T10:38:42.441Z,61.12
2022-08-27T10:41:21.306Z,60.47
2022-08-27T10:44:12.672Z,59.97
2022-08-27T10:47:12.028Z,60.56
2022-08-27T10:50:04.159Z,60.41
2022-08-27T10:52:51.480Z,60.15
2022-08-27T10:55:26.858Z,59.96
2022-08-27T10:58:31.147Z,59.21
2022-08-27T11:01:30.233Z,58.96
2022-08-27T11:04:06.678Z,58.75
2022-08-27T11:06:44.199Z,57.97
2022-08-27T11:09:21.469Z,58.34
2022-08-27T11:12:14.214Z,57.84
2022-08-27T11:14:56.939Z,57.38
2022-08-27T11:17:59.158Z,57.51
2022-08-27T11:20:31.312Z,57.75
2022-08-27T11:23:08.569Z,57.12
2022-08-27T11:26:02.122Z,56.68
2022-08-27T11:28:44.201Z,56.72
2022-08-27T11:32:20.275Z,56.69
2022-08-27T11:34:59.129Z,56.22
2022-08-27T11:38:11.067Z,56.23
2022-08-27T11:40:56.116Z,56.17
2022-08-27T11:43:28.733Z,55.61
2022-08-27T11:46:01.029Z,55.88
2022-08-27T11:48:32.447Z,56.09
2022-08-27T11:51:05.700Z,55.68
2022-08-27T11:53:52.293Z,55.05
2022-08-27T11:56:35.583Z,53.93
2022-08-27T11:59:23.301Z,53.61
2022-08-27T12:01:53.869Z,54.13
2022-08-27T12:04:37.202Z,54.13
2022-08-27T12:07:22.158Z,52.85
2022-08-27T12:10:18.600Z,53.93
2022-08-27T12:13:02.552Z,53.26
2022-08-27T12:15:41.209Z,53.85
2022-08-27T12:19:05.320Z,53.87
2022-08-27T12:22:05.400Z,53.63
2022-08-27T12:24:40.246Z,54.02
2022-08-27T12:27:21.971Z,53.59
2022-08-27T12:30:15.858Z,54.25
2022-08-27T12:32:46.359Z,53.92
2022-08-27T12:35:32.603Z,53.48
2022-08-27T12:38:33.556Z,53.08
2022-08-27T12:41:09.104Z,53.80
2022-08-27T12:43:43.169Z,53.66
2022-08-27T12:46:19.346Z,53.02
2022-08-27T12:48:57.899Z,52.57
2022-08-27T12:51:36.894Z,51.99
2022-08-27T12:54:52.546Z,51.70
2022-08-27T12:57:56.256Z,51.53
2022-08-27T13:00:26.504Z,51.85
2022-08-27T13:03:21.225Z,50.95
2022-08-27T13:05:56.666Z,51.36
2022-08-27T13:08:35.927Z,51.27
2022-08-27T13:11:30.854Z,50.74
2022-08-27T13:14:11.464Z,50.75
2022-08-27T13:16:46.598Z,51.65
2022-08-27T13:19:57.944Z,51.62
2022-08-27T13:22:38.575Z,51.58
2022-08-27T13:25:07.634Z,51.24
2022-08-27T13:27:37.299Z,50.19
2022-08-27T13:30:11.934Z,50.01
2022-08-27T13:32:53.998Z,50.11
2022-08-27T13:35:21.749Z,48.83
2022-08-27T13:37:57.516Z,48.94
2022-08-27T13:40:51.310Z,49.37
2022-08-27T13:43:19.196Z,50.11
2022-08-27T13:45:51.597Z,50.35
2022-08-27T13:48:19.970Z,50.06
2022-08-27T13:50:56.964Z,49.81
2022-08-27T13:53:50.419Z,49.44
2022-08-27T13:56:39.089Z,48.85
2022-08-27T13:59:14.980Z,49.19
2022-08-27T14:02:10.680Z,48.74
2022-08-27T14:04:49.945Z,49.15
2022-08-27T14:07:34.486Z,48.79
2022-08-27T14:10:27.278Z,49.69
2022-08-27T14:13:03.308Z,48.92
2022-08-27T14:15:42.232Z,49.48
2022-08-27T14:18:55.482Z,49.32
2022-08-27T14:21:21.088Z,49.53
2022-08-27T14:23:47.904Z,49.69
2022-08-27T14:26:17.236Z,49.31
2022-08-27T14:28:45.083Z,49.77
2022-08-27T14:31:13.314Z,49.76
2022-08-27T14:33:40.593Z,50.13
2022-08-27T14:36:08.754Z,50.51
2022-08-27T14:38:41.049Z,49.47
2022-08-27T14:41:09.042Z,49.59
2022-08-27T14:43:36.207Z,49.76
2022-08-27T14:46:06.272Z,49.19
2022-08-27T14:48:34.698Z,48.78
2022-08-27T14:51:12.314Z,47.26
2022-08-27T14:53:38.850Z,48.12
2022-08-27T14:56:06.182Z,48.05
2022-08-27T14:58:32.906Z,48.36
2022-08-27T15:00:59.586Z,48.49
2022-08-27T15:03:26.231Z,48.62
2022-08-27T15:05:55.092Z,48.83
2022-08-27T15:08:27.662Z,48.63
2022-08-27T15:10:56.519Z,48.44
2022-08-27T15:13:23.030Z,48.66
2022-08-27T15:15:49.664Z,48.28
2022-08-27T15:18:18.828Z,48.85
2022-08-27T15:20:45.450Z,49.25
2022-08-27T15:23:14.582Z,49.13
2022-08-27T15:25:42.366Z,49.18
2022-08-27T15:28:08.898Z,49.29
2022-08-27T15:30:36.926Z,49.36
2022-08-27T15:33:06.215Z,49.17
2022-08-27T15:35:33.295Z,49.34
2022-08-27T15:38:00.557Z,48.98
2022-08-27T15:40:31.959Z,49.09
2022-08-27T15:43:04.095Z,49.50
2022-08-27T15:45:32.565Z,49.54
2022-08-27T15:48:00.464Z,49.29
2022-08-27T15:50:29.575Z,49.48
2022-08-27T15:53:05.559Z,49.40
2022-08-27T15:55:36.456Z,49.43
2022-08-27T15:58:05.040Z,49.39
2022-08-27T16:00:35.399Z,49.54
2022-08-27T16:03:11.059Z,49.62
2022-08-27T16:05:47.404Z,49.65
2022-08-27T16:08:14.430Z,50.20
2022-08-27T16:10:41.109Z,50.49
2022-08-27T16:13:07.666Z,50.70
2022-08-27T16:15:39.320Z,50.80
2022-08-27T16:18:09.960Z,51.39
2022-08-27T16:20:37.147Z,51.19
2022-08-27T16:23:04.319Z,51.14
2022-08-27T16:25:30.984Z,51.32
2022-08-27T16:28:00.818Z,51.26
2022-08-27T16:30:28.493Z,51.49
2022-08-27T16:32:55.878Z,51.46
2022-08-27T16:35:24.968Z,51.21
2022-08-27T16:37:52.316Z,51.40
2022-08-27T16:40:18.970Z,51.19
2022-08-27T16:42:48.258Z,51.23
2022-08-27T16:45:17.792Z,51.43
2022-08-27T16:48:03.393Z,51.43
2022-08-27T16:50:35.907Z,51.60
2022-08-27T16:53:07.367Z,51.47
2022-08-27T16:55:37.536Z,51.61
2022-08-27T16:58:13.451Z,51.38
2022-08-27T17:00:40.405Z,51.50
2022-08-27T17:03:08.090Z,51.49
2022-08-27T17:05:35.300Z,51.33
2022-08-27T17:08:02.737Z,51.23
2022-08-27T17:10:39.032Z,51.25
2022-08-27T17:13:08.938Z,52.30
2022-08-27T17:18:03.829Z,52.38
2022-08-27T17:20:31.116Z,52.38
2022-08-27T17:22:58.211Z,52.38
2022-08-27T17:25:30.156Z,52.34
2022-08-27T17:28:00.156Z,52.08
2022-08-27T17:30:27.378Z,52.01
2022-08-27T17:32:54.186Z,52.22
2022-08-27T17:35:21.056Z,52.42
2022-08-27T17:37:48.195Z,52.42
2022-08-27T17:40:14.787Z,52.23
2022-08-27T17:42:41.473Z,52.24
2022-08-27T17:45:08.841Z,52.11
2022-08-27T17:47:35.367Z,52.51
2022-08-27T17:50:02.620Z,52.19
2022-08-27T17:52:29.759Z,52.51
2022-08-27T17:54:56.668Z,52.48
2022-08-27T17:57:40.089Z,52.31
2022-08-27T18:00:12.548Z,52.20
2022-08-27T18:02:44.617Z,52.21
2022-08-27T18:05:13.254Z,52.03
2022-08-27T18:07:42.548Z,52.11
2022-08-27T18:10:12.826Z,52.15
2022-08-27T18:12:40.977Z,52.24
2022-08-27T18:15:09.940Z,52.19
2022-08-27T18:17:42.493Z,52.54
2022-08-27T18:20:13.477Z,52.84
2022-08-27T18:22:48.540Z,52.84
2022-08-27T18:25:17.900Z,53.14
2022-08-27T18:27:48.772Z,53.18
2022-08-27T18:30:16.216Z,53.43
2022-08-27T18:32:42.905Z,53.23
2022-08-27T18:35:27.449Z,53.22
2022-08-27T18:37:54.724Z,53.08
2022-08-27T18:40:26.704Z,53.10
2022-08-27T18:42:54.159Z,52.79
2022-08-27T18:45:28.541Z,53.08
2022-08-27T18:47:59.286Z,53.12
2022-08-27T18:50:26.736Z,53.24
2022-08-27T18:52:56.680Z,53.33
2022-08-27T18:55:27.984Z,53.25
2022-08-27T18:57:55.163Z,53.60
2022-08-27T19:00:22.625Z,53.48
2022-08-27T19:02:52.702Z,53.64
2022-08-27T19:05:25.373Z,53.55
2022-08-27T19:07:54.374Z,53.96
2022-08-27T19:10:21.451Z,53.71
2022-08-27T19:12:48.184Z,53.67
2022-08-27T19:15:15.717Z,53.64
2022-08-27T19:17:46.947Z,53.74
2022-08-27T19:20:15.754Z,54.19
2022-08-27T19:22:42.249Z,53.95
2022-08-27T19:25:09.160Z,53.97
2022-08-27T19:27:36.631Z,53.93
2022-08-27T19:30:06.097Z,54.05
2022-08-27T19:32:33.095Z,54.12
2022-08-27T19:34:59.714Z,53.79
2022-08-27T19:37:30.609Z,53.81
2022-08-27T19:39:57.624Z,53.94
2022-08-27T19:42:24.302Z,53.75
2022-08-27T19:44:50.979Z,53.46
2022-08-27T19:47:21.457Z,53.52
2022-08-27T19:49:49.607Z,53.56
2022-08-27T19:52:16.272Z,53.35
2022-08-27T19:55:09.775Z,53.43
2022-08-27T19:57:29.421Z,53.93
2022-08-27T19:59:55.973Z,54.34
2022-08-27T20:02:23.695Z,54.24
2022-08-27T20:05:14.247Z,54.35
2022-08-27T20:07:36.852Z,54.26
2022-08-27T20:10:08.261Z,54.40
2022-08-27T20:12:35.838Z,54.20
2022-08-27T20:15:02.568Z,54.21
2022-08-27T20:17:29.583Z,54.13
2022-08-27T20:19:58.432Z,54.31
2022-08-27T20:22:25.128Z,54.10
2022-08-27T20:24:51.650Z,54.07
2022-08-27T20:27:18.238Z,54.07
2022-08-27T20:29:44.858Z,54.06
2022-08-27T20:32:12.992Z,54.14
2022-08-27T20:34:39.872Z,54.28
2022-08-27T20:37:06.702Z,54.23
2022-08-27T20:39:34.123Z,54.39
2022-08-27T20:42:00.729Z,54.31
2022-08-27T20:44:27.478Z,54.63
2022-08-27T20:46:59.739Z,54.61
2022-08-27T20:49:27.856Z,54.77
2022-08-27T20:52:02.882Z,54.95
2022-08-27T20:54:33.746Z,55.11
2022-08-27T20:57:02.147Z,55.08
2022-08-27T20:59:48.379Z,55.27
2022-08-27T21:02:21.800Z,55.49
2022-08-27T21:04:49.129Z,55.70
2022-08-27T21:07:18.230Z,55.76
2022-08-27T21:09:56.347Z,55.97
2022-08-27T21:12:26.221Z,56.44
2022-08-27T21:14:54.902Z,56.63
2022-08-27T21:17:24.502Z,56.59
2022-08-27T21:19:51.230Z,56.23
2022-08-27T21:22:19.748Z,56.34
2022-08-27T21:24:47.394Z,56.45
2022-08-27T21:27:20.963Z,56.67
2022-08-27T21:29:47.823Z,56.87
2022-08-27T21:32:15.635Z,57.14
2022-08-27T21:34:42.744Z,57.49
2022-08-27T21:37:13.508Z,57.43
2022-08-27T21:39:42.912Z,57.52
2022-08-27T21:42:12.409Z,57.34
2022-08-27T21:44:39.567Z,57.56
2022-08-27T21:47:06.594Z,57.41
2022-08-27T21:49:33.827Z,57.39
2022-08-27T21:52:04.702Z,57.52
2022-08-27T21:54:33.815Z,57.95
2022-08-27T21:57:00.664Z,58.02
2022-08-27T21:59:27.288Z,58.52
2022-08-27T22:02:00.490Z,58.62
2022-08-27T22:04:27.505Z,58.67
2022-08-27T22:06:57.898Z,58.81
2022-08-27T22:09:24.551Z,58.81
2022-08-27T22:11:51.129Z,58.72
2022-08-27T22:14:17.826Z,58.60
2022-08-27T22:16:44.427Z,58.62
2022-08-27T22:19:10.947Z,58.77
2022-08-27T22:21:37.767Z,58.67
2022-08-27T22:24:04.558Z,58.64
2022-08-27T22:26:31.809Z,58.18
2022-08-27T22:28:58.404Z,58.21
2022-08-27T22:31:25.136Z,58.12
2022-08-27T22:33:52.446Z,58.46
2022-08-27T22:36:20.176Z,58.35
2022-08-27T22:38:47.723Z,58.37
2022-08-27T22:41:15.013Z,58.58
2022-08-27T22:43:45.341Z,58.82
2022-08-27T22:46:12.387Z,58.84
2022-08-27T22:48:39.194Z,58.91
2022-08-27T22:51:05.917Z,58.75
2022-08-27T22:53:35.716Z,58.24
2022-08-27T22:56:05.947Z,57.87
2022-08-27T22:58:32.474Z,58.22
2022-08-27T23:00:59.069Z,58.27
2022-08-27T23:03:25.745Z,58.45
2022-08-27T23:05:52.650Z,58.71
2022-08-27T23:08:19.427Z,58.87
2022-08-27T23:10:45.972Z,58.86
2022-08-27T23:13:13.291Z,58.90
2022-08-27T23:15:41.458Z,58.85
2022-08-27T23:18:08.322Z,58.92
2022-08-27T23:20:35.146Z,59.00
2022-08-27T23:23:02.682Z,58.99
2022-08-27T23:26:05.094Z,58.97
2022-08-27T23:28:31.754Z,59.08
2022-08-27T23:30:59.515Z,59.00
2022-08-27T23:33:26.180Z,59.33
2022-08-27T23:35:52.753Z,59.22
2022-08-27T23:38:21.390Z,59.14
2022-08-27T23:40:49.532Z,59.06
2022-08-27T23:43:18.128Z,59.02
2022-08-27T23:45:44.707Z,59.42
2022-08-27T23:48:12.919Z,59.51
2022-08-27T23:50:40.700Z,59.74
2022-08-27T23:53:08.078Z,59.88
2022-08-27T23:55:34.843Z,59.90
2022-08-27T23:58:02.647Z,60.00
